Date,TemperatureHighF,TemperatureAvgF,TemperatureLowF,DewpointHighF,DewpointAvgF,DewpointLowF,HumidityHigh,HumidityAvg,HumidityLow,PressureMaxIn,PressureMinIn,WindSpeedMaxMPH,WindSpeedAvgMPH,GustSpeedMaxMPH,PrecipitationSumIn
2013-3-1,45,35,31,-100,-100,-100,0,0,100,0.00,40.00,0,-999,0,0.01
2013-3-2,46,36,29,-100,-100,-100,0,0,100,0.00,40.00,0,-999,0,0.00
2013-3-3,46,40,32,-100,-100,-100,0,0,100,0.00,40.00,0,-999,0,0.06
2013-3-4,35,29,23,-100,-100,-100,0,0,100,0.00,40.00,0,-999,0,0.01
2013-3-5,42,31,24,-100,-100,-100,0,0,100,0.00,40.00,0,-999,0,0.00
2013-3-6,52,38,29,-100,-100,-100,0,0,100,0.00,40.00,0,-999,0,0.21
2013-3-7,37,34,29,-100,-100,-100,0,0,100,0.00,40.00,0,-999,0,0.11
2013-3-8,40,34,31,-100,-100,-100,0,0,100,0.00,40.00,0,-999,0,0.01
2013-3-9,46,35,27,-100,-100,-100,0,0,100,0.00,40.00,0,-999,0,0.01
2013-3-10,51,40,30,-100,-100,-100,0,0,100,0.00,40.00,0,-999,0,0.01
2013-3-11,53,44,36,-100,-100,-100,0,0,100,0.00,40.00,0,-999,0,0.01
2013-3-12,57,45,34,-100,-100,-100,0,0,100,0.00,40.00,0,-999,0,0.01
2013-3-13,63,46,32,-100,-100,-100,0,0,100,0.00,40.00,0,-999,0,0.01
2013-3-14,59,43,32,-100,-100,-100,0,0,100,0.00,40.00,0,-999,0,0.01
2013-3-15,61,51,41,-100,-100,-100,0,0,100,0.00,40.00,0,-999,0,0.01
2013-3-16,58,47,37,-100,-100,-100,0,0,100,0.00,40.00,0,-999,0,0.01
2013-3-17,44,38,31,-100,-100,-100,0,0,100,0.00,40.00,0,-999,0,0.06
2013-3-18,47,36,27,-100,-100,-100,0,0,100,0.00,40.00,0,-999,0,0.01
2013-3-19,46,37,23,-100,-100,-100,0,0,100,0.00,40.00,0,-999,0,0.01
2013-3-20,50,44,38,-100,-100,-100,0,0,100,0.00,40.00,0,-999,0,0.40
2013-3-21,43,35,29,-100,-100,-100,0,0,100,0.00,40.00,0,-999,0,0.28
2013-3-22,31,27,23,-100,-100,-100,0,0,100,0.00,40.00,0,-999,0,0.01
2013-3-23,35,27,22,-100,-100,-100,0,0,100,0.00,40.00,0,-999,0,0.01
2013-3-24,36,27,18,-100,-100,-100,0,0,100,0.00,40.00,0,-999,0,0.01
2013-3-25,42,32,20,-100,-100,-100,0,0,100,0.00,40.00,0,-999,0,0.00
2013-3-26,46,38,32,-100,-100,-100,0,0,100,0.00,40.00,0,-999,0,0.08
2013-3-27,50,39,32,-100,-100,-100,0,0,100,0.00,40.00,0,-999,0,0.08
2013-3-28,58,44,35,-100,-100,-100,0,0,100,0.00,40.00,0,-999,0,0.00
2013-3-29,65,51,37,-100,-100,-100,0,0,100,0.00,40.00,0,-999,0,0.00
2013-3-30,60,47,35,-100,-100,-100,0,0,100,0.00,40.00,0,-999,0,0.00
2013-3-31,55,42,33,-100,-100,-100,0,0,100,0.00,40.00,0,-999,0,0.00